Terminal Aerodrome Forecast
Issued by NWS Wilmington, NC

Home | Current Version | Previous Version | Text Only | Print | Product List | Glossary On
Versions: 1 2 3 4 5 6 7 8 9 10 11 12 13 14 15 16 17 18 19 20
000
FTUS42 KILM 311722
TAFFLO
TAF
KFLO 311722Z 3118/0118 02011KT P6SM VCSH SCT035 SCT100
      TEMPO 3118/3121 BKN035
     FM010000 01004KT P6SM SCT040 BKN100
     FM010800 01004KT P6SM BKN004
     FM011330 36007KT P6SM SCT030 BKN100=

USA.gov is the U.S. government's official web portal to all federal, state and local government web resources and services.